Fortunate — 3FLG6 — position and weather

sailwx.info

Track history (hours):
 
Tides and Currents Weather Stations Pressure Air Temp Water Temp Dewpoint Dewpoint Depression Visibility Wind Speed Wind Dir Waves Ship Positions

Fortunate

Last reported at 2017-Feb-23 11:31 UTC. Time now 2017-Feb-23 11:42 UTC.
Position N 51°58' E 001°17'.

Length 275 m; draft 11.8 m.

Type: Ship (hazmat cat A). MMSI: 356708000.

Date/timePositionNaut miles runAvg speedWind from/ knotsBaromVisibWave heightAir tempDewpointWater temp
2017-Feb-23 11:31N 51°58' E 001°17'0 0.0
2017-Feb-23 10:31N 51°58' E 001°17'0 0.0
2017-Feb-23 09:31N 51°58' E 001°17'0 0.0
2017-Feb-23 08:31N 51°58' E 001°17'0 0.0
2017-Feb-23 07:31N 51°58' E 001°17'0 0.0
2017-Feb-23 06:31N 51°58' E 001°17'0 0.0
2017-Feb-23 05:31N 51°58' E 001°17'0 0.0
2017-Feb-23 04:31N 51°58' E 001°17'0 0.0
2017-Feb-23 03:31N 51°58' E 001°17'0 0.0
2017-Feb-23 02:31N 51°58' E 001°17'0 0.0
2017-Feb-23 01:33N 51°58' E 001°17'5 4.8
2017-Feb-23 00:33N 51°56' E 001°25'1010.0
2017-Feb-22 23:34N 51°52' E 001°40'2 1.7
2017-Feb-22 22:33N 51°53' E 001°43'1 0.6
2017-Feb-22 21:34N 51°52' E 001°42'4 3.9
2017-Feb-22 20:34N 51°50' E 001°47'1515.1
2017-Feb-22 19:33N 51°35' E 001°51'1514.8
2017-Feb-22 18:33N 51°21' E 001°58'1818.0
2017-Feb-22 17:34N 51°07' E 001°40'1817.4
2017-Feb-22 16:33N 50°52' E 001°25'5317.0
2017-Feb-22 13:27N 50°21' E 000°17'1618.3
2017-Feb-22 12:34N 50°15' W 000°06'1717.4
2017-Feb-22 11:34N 50°05' W 000°29'6 5.8
2017-Feb-22 10:34N 50°07' W 000°20'2215.3
2017-Feb-22 09:07N 50°12' W 000°54'1018.6
2017-Feb-22 08:33N 50°09' W 001°10'1919.1
2017-Feb-22 07:33N 50°03' W 001°38'2019.8
2017-Feb-22 06:33N 49°59' W 002°08'4519.9
2017-Feb-22 04:18N 49°42' W 003°13'5819.4
2017-Feb-22 01:18N 49°13' W 004°30'1719.3
2017-Feb-22 00:26N 49°04' W 004°52'1719.3
2017-Feb-21 23:33N 48°55' W 005°14'1919.0
2017-Feb-21 22:32N 48°43' W 005°37'2319.1
2017-Feb-21 21:22N 48°24' W 005°55'46518.0
2017-Feb-20 19:33N 41°10' W 009°50'2018.5
2017-Feb-20 18:30N 40°50' W 009°50'1718.4
2017-Feb-20 17:33N 40°33' W 009°51'2718.1
2017-Feb-20 16:04N 40°06' W 009°50'918.4
2017-Feb-20 15:33N 39°57' W 009°50'1918.5
2017-Feb-20 14:33N 39°38' W 009°51'1818.5
2017-Feb-20 13:33N 39°20' W 009°51'1818.4
2017-Feb-20 12:33N 39°01' W 009°51'1717.4
2017-Feb-20 11:33N 38°44' W 009°52'1515.5
2017-Feb-20 10:34N 38°29' W 009°45'1514.9
2017-Feb-20 09:33N 38°15' W 009°40'1312.8
2017-Feb-20 08:33N 38°02' W 009°38'1414.4
2017-Feb-20 07:33N 37°48' W 009°34'21511.7
2017-Feb-19 13:16N 35°58' W 005°44'1217.2
2017-Feb-19 12:33N 35°59' W 005°29'1818.1
2017-Feb-19 11:33N 36°02' W 005°07'20718.2
2017-Feb-19 00:08N 37°13' W 001°04'1219.2
2017-Feb-18 23:32N 37°20' W 000°53'1919.3
2017-Feb-18 22:33N 37°33' W 000°35'11015.3
2017-Feb-18 15:23N 39°22' W 000°12'7 8.7
2017-Feb-18 14:32N 39°26' W 000°19'0 0.0
2017-Feb-18 11:17N 39°26' W 000°19'0 0.0
2017-Feb-18 10:29N 39°26' W 000°19'0 0.0
2017-Feb-18 09:32N 39°26' W 000°19'0 0.0
2017-Feb-18 08:32N 39°26' W 000°19'0 0.0
2017-Feb-18 07:29N 39°26' W 000°19'0 0.0
2017-Feb-18 06:32N 39°26' W 000°19'0 0.0
2017-Feb-18 05:29N 39°26' W 000°19'0 0.0
2017-Feb-18 04:23N 39°26' W 000°19'0 0.0
2017-Feb-18 03:29N 39°26' W 000°19'0 0.0
2017-Feb-18 02:14N 39°26' W 000°19'0 0.0
2017-Feb-18 01:29N 39°26' W 000°19'0 0.0
2017-Feb-18 00:29N 39°26' W 000°19'0 0.0
2017-Feb-17 23:29N 39°26' W 000°19'0 0.0
2017-Feb-17 22:23N 39°26' W 000°19'0 0.0
2017-Feb-17 21:29N 39°26' W 000°19'0 0.0
2017-Feb-17 20:29N 39°26' W 000°19'0 0.0
2017-Feb-17 19:29N 39°26' W 000°19'0 0.0
2017-Feb-17 18:29N 39°26' W 000°19'0 0.0
2017-Feb-17 17:32N 39°26' W 000°19'0 0.0
2017-Feb-17 16:32N 39°26' W 000°19'0 0.0
2017-Feb-17 15:29N 39°26' W 000°19'0 0.0
2017-Feb-17 14:32N 39°26' W 000°19'0 0.0
2017-Feb-17 13:29N 39°26' W 000°19'0 0.0
2017-Feb-17 12:32N 39°26' W 000°19'0 0.0
2017-Feb-17 11:33N 39°26' W 000°19'8 7.5
2017-Feb-17 10:33N 39°24' W 000°10'6018.0
2017-Feb-17 07:13N 39°16' E 001°07'1317.8
2017-Feb-17 06:31N 39°14' E 001°23'1717.9
2017-Feb-17 05:33N 39°13' E 001°45'1817.9
2017-Feb-17 04:33N 39°09' E 002°08'1818.5
2017-Feb-17 03:33N 39°07' E 002°31'1817.8
2017-Feb-17 02:33N 39°04' E 002°54'1817.7
2017-Feb-17 01:33N 39°03' E 003°17'1717.3
2017-Feb-17 00:33N 39°02' E 003°39'24017.9
2017-Feb-16 11:11N 38°49' E 008°47'1117.7
2017-Feb-16 10:34N 38°51' E 009°01'1817.8
2017-Feb-16 09:32N 38°57' E 009°23'24817.8
2017-Feb-15 19:33N 40°45' E 014°14'6 1.1
2017-Feb-15 14:25N 40°50' E 014°17'0 0.0
2017-Feb-15 13:31N 40°50' E 014°17'0 0.0
2017-Feb-15 12:31N 40°50' E 014°17'  
Track history (hours):
 
Tides and Currents Weather Stations Pressure Air Temp Water Temp Dewpoint Dewpoint Depression Visibility Wind Speed Wind Dir Waves Ship Positions

Fortunate

Last reported at 2017-Feb-23 11:31 UTC. Time now 2017-Feb-23 11:42 UTC.
Position N 51°58' E 001°17'.

Length 275 m; draft 11.8 m.

Type: Ship (hazmat cat A). MMSI: 356708000.

Date/timePositionNaut miles runAvg speedWind from/ knotsBaromVisibWave heightAir tempDewpointWater temp
2017-Feb-23 11:31N 51°58' E 001°17'0 0.0
2017-Feb-23 10:31N 51°58' E 001°17'0 0.0
2017-Feb-23 09:31N 51°58' E 001°17'0 0.0
2017-Feb-23 08:31N 51°58' E 001°17'0 0.0
2017-Feb-23 07:31N 51°58' E 001°17'0 0.0
2017-Feb-23 06:31N 51°58' E 001°17'0 0.0
2017-Feb-23 05:31N 51°58' E 001°17'0 0.0
2017-Feb-23 04:31N 51°58' E 001°17'0 0.0
2017-Feb-23 03:31N 51°58' E 001°17'0 0.0
2017-Feb-23 02:31N 51°58' E 001°17'0 0.0
2017-Feb-23 01:33N 51°58' E 001°17'5 4.8
2017-Feb-23 00:33N 51°56' E 001°25'1010.0
2017-Feb-22 23:34N 51°52' E 001°40'2 1.7
2017-Feb-22 22:33N 51°53' E 001°43'1 0.6
2017-Feb-22 21:34N 51°52' E 001°42'4 3.9
2017-Feb-22 20:34N 51°50' E 001°47'1515.1
2017-Feb-22 19:33N 51°35' E 001°51'1514.8
2017-Feb-22 18:33N 51°21' E 001°58'1818.0
2017-Feb-22 17:34N 51°07' E 001°40'1817.4
2017-Feb-22 16:33N 50°52' E 001°25'5317.0
2017-Feb-22 13:27N 50°21' E 000°17'1618.3
2017-Feb-22 12:34N 50°15' W 000°06'1717.4
2017-Feb-22 11:34N 50°05' W 000°29'6 5.8
2017-Feb-22 10:34N 50°07' W 000°20'2215.3
2017-Feb-22 09:07N 50°12' W 000°54'1018.6
2017-Feb-22 08:33N 50°09' W 001°10'1919.1
2017-Feb-22 07:33N 50°03' W 001°38'2019.8
2017-Feb-22 06:33N 49°59' W 002°08'4519.9
2017-Feb-22 04:18N 49°42' W 003°13'5819.4
2017-Feb-22 01:18N 49°13' W 004°30'1719.3
2017-Feb-22 00:26N 49°04' W 004°52'1719.3
2017-Feb-21 23:33N 48°55' W 005°14'1919.0
2017-Feb-21 22:32N 48°43' W 005°37'2319.1
2017-Feb-21 21:22N 48°24' W 005°55'46518.0
2017-Feb-20 19:33N 41°10' W 009°50'2018.5
2017-Feb-20 18:30N 40°50' W 009°50'1718.4
2017-Feb-20 17:33N 40°33' W 009°51'2718.1
2017-Feb-20 16:04N 40°06' W 009°50'918.4
2017-Feb-20 15:33N 39°57' W 009°50'1918.5
2017-Feb-20 14:33N 39°38' W 009°51'1818.5
2017-Feb-20 13:33N 39°20' W 009°51'1818.4
2017-Feb-20 12:33N 39°01' W 009°51'1717.4
2017-Feb-20 11:33N 38°44' W 009°52'1515.5
2017-Feb-20 10:34N 38°29' W 009°45'1514.9
2017-Feb-20 09:33N 38°15' W 009°40'1312.8
2017-Feb-20 08:33N 38°02' W 009°38'1414.4
2017-Feb-20 07:33N 37°48' W 009°34'21511.7
2017-Feb-19 13:16N 35°58' W 005°44'1217.2
2017-Feb-19 12:33N 35°59' W 005°29'1818.1
2017-Feb-19 11:33N 36°02' W 005°07'20718.2
2017-Feb-19 00:08N 37°13' W 001°04'1219.2
2017-Feb-18 23:32N 37°20' W 000°53'1919.3
2017-Feb-18 22:33N 37°33' W 000°35'11015.3
2017-Feb-18 15:23N 39°22' W 000°12'7 8.7
2017-Feb-18 14:32N 39°26' W 000°19'0 0.0
2017-Feb-18 11:17N 39°26' W 000°19'0 0.0
2017-Feb-18 10:29N 39°26' W 000°19'0 0.0
2017-Feb-18 09:32N 39°26' W 000°19'0 0.0
2017-Feb-18 08:32N 39°26' W 000°19'0 0.0
2017-Feb-18 07:29N 39°26' W 000°19'0 0.0
2017-Feb-18 06:32N 39°26' W 000°19'0 0.0
2017-Feb-18 05:29N 39°26' W 000°19'0 0.0
2017-Feb-18 04:23N 39°26' W 000°19'0 0.0
2017-Feb-18 03:29N 39°26' W 000°19'0 0.0
2017-Feb-18 02:14N 39°26' W 000°19'0 0.0
2017-Feb-18 01:29N 39°26' W 000°19'0 0.0
2017-Feb-18 00:29N 39°26' W 000°19'0 0.0
2017-Feb-17 23:29N 39°26' W 000°19'0 0.0
2017-Feb-17 22:23N 39°26' W 000°19'0 0.0
2017-Feb-17 21:29N 39°26' W 000°19'0 0.0
2017-Feb-17 20:29N 39°26' W 000°19'0 0.0
2017-Feb-17 19:29N 39°26' W 000°19'0 0.0
2017-Feb-17 18:29N 39°26' W 000°19'0 0.0
2017-Feb-17 17:32N 39°26' W 000°19'0 0.0
2017-Feb-17 16:32N 39°26' W 000°19'0 0.0
2017-Feb-17 15:29N 39°26' W 000°19'0 0.0
2017-Feb-17 14:32N 39°26' W 000°19'0 0.0
2017-Feb-17 13:29N 39°26' W 000°19'0 0.0
2017-Feb-17 12:32N 39°26' W 000°19'0 0.0
2017-Feb-17 11:33N 39°26' W 000°19'8 7.5
2017-Feb-17 10:33N 39°24' W 000°10'6018.0
2017-Feb-17 07:13N 39°16' E 001°07'1317.8
2017-Feb-17 06:31N 39°14' E 001°23'1717.9
2017-Feb-17 05:33N 39°13' E 001°45'1817.9
2017-Feb-17 04:33N 39°09' E 002°08'1818.5
2017-Feb-17 03:33N 39°07' E 002°31'1817.8
2017-Feb-17 02:33N 39°04' E 002°54'1817.7
2017-Feb-17 01:33N 39°03' E 003°17'1717.3
2017-Feb-17 00:33N 39°02' E 003°39'24017.9
2017-Feb-16 11:11N 38°49' E 008°47'1117.7
2017-Feb-16 10:34N 38°51' E 009°01'1817.8
2017-Feb-16 09:32N 38°57' E 009°23'24817.8
2017-Feb-15 19:33N 40°45' E 014°14'6 1.1
2017-Feb-15 14:25N 40°50' E 014°17'0 0.0
2017-Feb-15 13:31N 40°50' E 014°17'0 0.0
2017-Feb-15 12:31N 40°50' E 014°17'  

Dump ship's entire track history